sensor_id;sensor_type;location;lat;lon;timestamp;P1;durP1;ratioP1;P2;durP2;ratioP2
9722;SDS011;4900;49.306;8.500;2023-11-21T00:00:34;5.50;;;2.30;;
9722;SDS011;4900;49.306;8.500;2023-11-21T00:02:59;5.73;;;2.13;;
9722;SDS011;4900;49.306;8.500;2023-11-21T00:05:25;4.40;;;2.50;;
9722;SDS011;4900;49.306;8.500;2023-11-21T00:07:50;4.43;;;2.27;;
9722;SDS011;4900;49.306;8.500;2023-11-21T00:10:16;4.83;;;2.43;;
9722;SDS011;4900;49.306;8.500;2023-11-21T00:12:42;4.73;;;2.43;;
9722;SDS011;4900;49.306;8.500;2023-11-21T00:15:08;4.97;;;2.63;;
9722;SDS011;4900;49.306;8.500;2023-11-21T00:17:39;4.23;;;2.30;;
9722;SDS011;4900;49.306;8.500;2023-11-21T00:20:08;4.47;;;2.60;;
9722;SDS011;4900;49.306;8.500;2023-11-21T00:22:34;6.10;;;2.50;;
9722;SDS011;4900;49.306;8.500;2023-11-21T00:25:00;4.70;;;2.67;;
9722;SDS011;4900;49.306;8.500;2023-11-21T00:27:26;5.67;;;2.83;;
9722;SDS011;4900;49.306;8.500;2023-11-21T00:29:51;4.53;;;2.80;;
9722;SDS011;4900;49.306;8.500;2023-11-21T00:32:17;3.33;;;2.43;;
9722;SDS011;4900;49.306;8.500;2023-11-21T00:34:42;6.17;;;2.77;;
9722;SDS011;4900;49.306;8.500;2023-11-21T00:37:07;4.73;;;2.97;;
9722;SDS011;4900;49.306;8.500;2023-11-21T00:39:33;7.20;;;3.00;;
9722;SDS011;4900;49.306;8.500;2023-11-21T00:42:00;6.43;;;3.17;;
9722;SDS011;4900;49.306;8.500;2023-11-21T00:44:25;4.77;;;2.90;;
9722;SDS011;4900;49.306;8.500;2023-11-21T00:46:51;7.80;;;3.20;;
9722;SDS011;4900;49.306;8.500;2023-11-21T00:49:16;5.83;;;3.10;;
9722;SDS011;4900;49.306;8.500;2023-11-21T00:51:41;4.70;;;2.97;;
9722;SDS011;4900;49.306;8.500;2023-11-21T00:54:08;6.10;;;2.90;;
9722;SDS011;4900;49.306;8.500;2023-11-21T00:56:33;3.60;;;2.40;;
9722;SDS011;4900;49.306;8.500;2023-11-21T00:58:59;5.80;;;2.57;;
9722;SDS011;4900;49.306;8.500;2023-11-21T01:01:24;5.00;;;2.60;;
9722;SDS011;4900;49.306;8.500;2023-11-21T01:03:50;6.17;;;2.43;;
9722;SDS011;4900;49.306;8.500;2023-11-21T01:06:16;5.60;;;2.13;;
9722;SDS011;4900;49.306;8.500;2023-11-21T01:08:41;4.57;;;2.33;;
9722;SDS011;4900;49.306;8.500;2023-11-21T01:11:07;5.57;;;2.50;;
9722;SDS011;4900;49.306;8.500;2023-11-21T01:13:37;8.13;;;2.73;;
9722;SDS011;4900;49.306;8.500;2023-11-21T01:16:06;5.50;;;2.43;;
9722;SDS011;4900;49.306;8.500;2023-11-21T01:18:32;4.73;;;2.30;;
9722;SDS011;4900;49.306;8.500;2023-11-21T01:20:58;4.67;;;2.40;;
9722;SDS011;4900;49.306;8.500;2023-11-21T01:23:25;7.17;;;2.60;;
9722;SDS011;4900;49.306;8.500;2023-11-21T01:25:51;4.43;;;2.40;;
9722;SDS011;4900;49.306;8.500;2023-11-21T01:28:17;4.37;;;2.60;;
9722;SDS011;4900;49.306;8.500;2023-11-21T01:30:43;4.93;;;2.53;;
9722;SDS011;4900;49.306;8.500;2023-11-21T01:33:09;5.30;;;2.50;;
9722;SDS011;4900;49.306;8.500;2023-11-21T01:35:36;7.10;;;2.90;;
9722;SDS011;4900;49.306;8.500;2023-11-21T01:38:01;5.60;;;2.97;;
9722;SDS011;4900;49.306;8.500;2023-11-21T01:40:26;5.00;;;3.10;;
9722;SDS011;4900;49.306;8.500;2023-11-21T01:42:53;5.50;;;3.00;;
9722;SDS011;4900;49.306;8.500;2023-11-21T01:45:19;5.27;;;2.97;;
9722;SDS011;4900;49.306;8.500;2023-11-21T01:47:45;6.73;;;3.50;;
9722;SDS011;4900;49.306;8.500;2023-11-21T01:50:13;7.73;;;3.87;;
9722;SDS011;4900;49.306;8.500;2023-11-21T01:52:41;7.70;;;3.93;;
9722;SDS011;4900;49.306;8.500;2023-11-21T01:55:08;5.50;;;3.60;;
9722;SDS011;4900;49.306;8.500;2023-11-21T01:57:35;6.57;;;4.13;;
9722;SDS011;4900;49.306;8.500;2023-11-21T02:00:02;5.77;;;3.60;;
9722;SDS011;4900;49.306;8.500;2023-11-21T02:02:41;5.93;;;3.60;;
9722;SDS011;4900;49.306;8.500;2023-11-21T02:05:07;4.80;;;3.60;;
9722;SDS011;4900;49.306;8.500;2023-11-21T02:07:34;4.50;;;3.20;;
9722;SDS011;4900;49.306;8.500;2023-11-21T02:10:00;5.97;;;3.30;;
9722;SDS011;4900;49.306;8.500;2023-11-21T02:12:25;5.90;;;3.10;;
9722;SDS011;4900;49.306;8.500;2023-11-21T02:14:51;4.87;;;2.60;;
9722;SDS011;4900;49.306;8.500;2023-11-21T02:17:17;3.30;;;2.40;;
9722;SDS011;4900;49.306;8.500;2023-11-21T02:19:43;4.30;;;2.80;;
9722;SDS011;4900;49.306;8.500;2023-11-21T02:22:09;5.93;;;2.73;;
9722;SDS011;4900;49.306;8.500;2023-11-21T02:24:37;4.13;;;2.60;;
9722;SDS011;4900;49.306;8.500;2023-11-21T02:27:07;5.17;;;2.70;;
9722;SDS011;4900;49.306;8.500;2023-11-21T02:29:32;4.63;;;2.70;;
9722;SDS011;4900;49.306;8.500;2023-11-21T02:31:58;4.73;;;2.50;;
9722;SDS011;4900;49.306;8.500;2023-11-21T02:34:24;4.87;;;2.70;;
9722;SDS011;4900;49.306;8.500;2023-11-21T02:36:50;3.00;;;2.13;;
9722;SDS011;4900;49.306;8.500;2023-11-21T02:39:16;4.17;;;2.50;;
9722;SDS011;4900;49.306;8.500;2023-11-21T02:41:42;3.40;;;2.43;;
9722;SDS011;4900;49.306;8.500;2023-11-21T02:44:08;5.43;;;2.70;;
9722;SDS011;4900;49.306;8.500;2023-11-21T02:46:33;4.47;;;2.40;;
9722;SDS011;4900;49.306;8.500;2023-11-21T02:49:00;4.33;;;2.60;;
9722;SDS011;4900;49.306;8.500;2023-11-21T02:51:26;3.60;;;2.27;;
9722;SDS011;4900;49.306;8.500;2023-11-21T02:53:51;4.73;;;2.90;;
9722;SDS011;4900;49.306;8.500;2023-11-21T02:56:17;4.17;;;2.73;;
9722;SDS011;4900;49.306;8.500;2023-11-21T02:58:42;4.67;;;2.80;;
9722;SDS011;4900;49.306;8.500;2023-11-21T03:01:09;4.63;;;2.93;;
9722;SDS011;4900;49.306;8.500;2023-11-21T03:03:36;5.00;;;3.57;;
9722;SDS011;4900;49.306;8.500;2023-11-21T03:06:04;3.87;;;3.50;;
9722;SDS011;4900;49.306;8.500;2023-11-21T03:08:29;5.53;;;3.40;;
9722;SDS011;4900;49.306;8.500;2023-11-21T03:10:55;4.07;;;3.23;;
9722;SDS011;4900;49.306;8.500;2023-11-21T03:13:21;4.40;;;3.20;;
9722;SDS011;4900;49.306;8.500;2023-11-21T03:15:46;4.70;;;3.40;;
9722;SDS011;4900;49.306;8.500;2023-11-21T03:18:12;4.03;;;3.53;;
9722;SDS011;4900;49.306;8.500;2023-11-21T03:20:38;5.50;;;3.50;;
9722;SDS011;4900;49.306;8.500;2023-11-21T03:23:03;3.90;;;3.37;;
9722;SDS011;4900;49.306;8.500;2023-11-21T03:25:30;4.40;;;3.30;;
9722;SDS011;4900;49.306;8.500;2023-11-21T03:27:56;3.77;;;3.43;;
9722;SDS011;4900;49.306;8.500;2023-11-21T03:30:21;4.60;;;3.50;;
9722;SDS011;4900;49.306;8.500;2023-11-21T03:32:47;6.73;;;3.30;;
9722;SDS011;4900;49.306;8.500;2023-11-21T03:35:12;5.10;;;3.27;;
9722;SDS011;4900;49.306;8.500;2023-11-21T03:37:38;5.30;;;3.20;;
9722;SDS011;4900;49.306;8.500;2023-11-21T03:40:06;5.07;;;3.23;;
9722;SDS011;4900;49.306;8.500;2023-11-21T03:42:34;4.03;;;3.17;;
9722;SDS011;4900;49.306;8.500;2023-11-21T03:44:59;4.57;;;2.90;;
9722;SDS011;4900;49.306;8.500;2023-11-21T03:47:26;3.87;;;2.93;;
9722;SDS011;4900;49.306;8.500;2023-11-21T03:49:53;3.90;;;3.03;;
9722;SDS011;4900;49.306;8.500;2023-11-21T03:52:18;5.10;;;2.80;;
9722;SDS011;4900;49.306;8.500;2023-11-21T03:54:44;3.77;;;3.00;;
9722;SDS011;4900;49.306;8.500;2023-11-21T03:57:09;4.20;;;2.57;;
9722;SDS011;4900;49.306;8.500;2023-11-21T03:59:34;3.03;;;2.30;;
9722;SDS011;4900;49.306;8.500;2023-11-21T04:02:00;2.60;;;2.30;;
9722;SDS011;4900;49.306;8.500;2023-11-21T04:04:25;3.30;;;2.47;;
9722;SDS011;4900;49.306;8.500;2023-11-21T04:06:51;4.47;;;2.40;;
9722;SDS011;4900;49.306;8.500;2023-11-21T04:09:19;3.37;;;2.40;;
9722;SDS011;4900;49.306;8.500;2023-11-21T04:11:44;3.07;;;2.40;;
9722;SDS011;4900;49.306;8.500;2023-11-21T04:14:10;3.63;;;2.20;;
9722;SDS011;4900;49.306;8.500;2023-11-21T04:16:37;3.23;;;2.10;;
9722;SDS011;4900;49.306;8.500;2023-11-21T04:19:02;2.40;;;2.10;;
9722;SDS011;4900;49.306;8.500;2023-11-21T04:21:28;2.93;;;2.20;;
9722;SDS011;4900;49.306;8.500;2023-11-21T04:23:53;2.57;;;2.07;;
9722;SDS011;4900;49.306;8.500;2023-11-21T04:26:18;2.10;;;1.90;;
9722;SDS011;4900;49.306;8.500;2023-11-21T04:28:44;3.70;;;2.20;;
9722;SDS011;4900;49.306;8.500;2023-11-21T04:31:09;3.27;;;2.00;;
9722;SDS011;4900;49.306;8.500;2023-11-21T04:33:35;2.83;;;2.03;;
9722;SDS011;4900;49.306;8.500;2023-11-21T04:36:00;3.60;;;2.50;;
9722;SDS011;4900;49.306;8.500;2023-11-21T04:38:25;5.47;;;2.10;;
9722;SDS011;4900;49.306;8.500;2023-11-21T04:40:51;2.83;;;2.10;;
9722;SDS011;4900;49.306;8.500;2023-11-21T04:43:17;3.73;;;2.40;;
9722;SDS011;4900;49.306;8.500;2023-11-21T04:45:42;3.43;;;2.40;;
9722;SDS011;4900;49.306;8.500;2023-11-21T04:48:08;2.87;;;2.37;;
9722;SDS011;4900;49.306;8.500;2023-11-21T04:50:34;4.53;;;2.50;;
9722;SDS011;4900;49.306;8.500;2023-11-21T04:52:59;2.90;;;2.57;;
9722;SDS011;4900;49.306;8.500;2023-11-21T04:55:25;2.87;;;2.20;;
9722;SDS011;4900;49.306;8.500;2023-11-21T04:57:53;3.07;;;2.20;;
9722;SDS011;4900;49.306;8.500;2023-11-21T05:00:18;3.83;;;2.17;;
9722;SDS011;4900;49.306;8.500;2023-11-21T05:02:45;3.57;;;2.10;;
9722;SDS011;4900;49.306;8.500;2023-11-21T05:05:10;3.90;;;2.30;;
9722;SDS011;4900;49.306;8.500;2023-11-21T05:07:36;2.70;;;2.17;;
9722;SDS011;4900;49.306;8.500;2023-11-21T05:10:03;6.37;;;2.57;;
9722;SDS011;4900;49.306;8.500;2023-11-21T05:12:32;3.87;;;2.50;;
9722;SDS011;4900;49.306;8.500;2023-11-21T05:15:01;2.97;;;2.03;;
9722;SDS011;4900;49.306;8.500;2023-11-21T05:17:32;3.63;;;2.40;;
9722;SDS011;4900;49.306;8.500;2023-11-21T05:19:59;4.97;;;2.70;;
9722;SDS011;4900;49.306;8.500;2023-11-21T05:22:26;3.83;;;2.67;;
9722;SDS011;4900;49.306;8.500;2023-11-21T05:24:52;3.30;;;2.43;;
9722;SDS011;4900;49.306;8.500;2023-11-21T05:27:18;3.57;;;2.20;;
9722;SDS011;4900;49.306;8.500;2023-11-21T05:29:43;2.60;;;2.33;;
9722;SDS011;4900;49.306;8.500;2023-11-21T05:32:08;3.87;;;2.50;;
9722;SDS011;4900;49.306;8.500;2023-11-21T05:34:34;2.97;;;2.23;;
9722;SDS011;4900;49.306;8.500;2023-11-21T05:36:59;4.60;;;2.67;;
9722;SDS011;4900;49.306;8.500;2023-11-21T05:39:25;4.60;;;2.63;;
9722;SDS011;4900;49.306;8.500;2023-11-21T05:41:50;4.73;;;2.90;;
9722;SDS011;4900;49.306;8.500;2023-11-21T05:44:16;4.70;;;2.70;;
9722;SDS011;4900;49.306;8.500;2023-11-21T05:46:41;3.90;;;2.57;;
9722;SDS011;4900;49.306;8.500;2023-11-21T05:49:08;4.37;;;2.70;;
9722;SDS011;4900;49.306;8.500;2023-11-21T05:51:33;4.13;;;3.00;;
9722;SDS011;4900;49.306;8.500;2023-11-21T05:53:59;4.13;;;3.17;;
9722;SDS011;4900;49.306;8.500;2023-11-21T05:56:24;3.10;;;2.80;;
9722;SDS011;4900;49.306;8.500;2023-11-21T05:58:50;4.80;;;2.77;;
9722;SDS011;4900;49.306;8.500;2023-11-21T06:01:16;4.00;;;2.30;;
9722;SDS011;4900;49.306;8.500;2023-11-21T06:03:41;3.43;;;2.30;;
9722;SDS011;4900;49.306;8.500;2023-11-21T06:06:07;3.93;;;2.27;;
9722;SDS011;4900;49.306;8.500;2023-11-21T06:08:32;2.67;;;2.30;;
9722;SDS011;4900;49.306;8.500;2023-11-21T06:10:58;3.63;;;2.40;;
9722;SDS011;4900;49.306;8.500;2023-11-21T06:13:23;3.43;;;2.17;;
9722;SDS011;4900;49.306;8.500;2023-11-21T06:15:50;3.80;;;2.27;;
9722;SDS011;4900;49.306;8.500;2023-11-21T06:18:16;3.90;;;2.30;;
9722;SDS011;4900;49.306;8.500;2023-11-21T06:20:44;3.63;;;2.67;;
9722;SDS011;4900;49.306;8.500;2023-11-21T06:23:12;3.20;;;2.50;;
9722;SDS011;4900;49.306;8.500;2023-11-21T06:25:39;3.67;;;2.70;;
9722;SDS011;4900;49.306;8.500;2023-11-21T06:28:05;3.63;;;2.40;;
9722;SDS011;4900;49.306;8.500;2023-11-21T06:30:31;3.13;;;2.40;;
9722;SDS011;4900;49.306;8.500;2023-11-21T06:32:57;2.67;;;2.33;;
9722;SDS011;4900;49.306;8.500;2023-11-21T06:35:22;3.23;;;2.50;;
9722;SDS011;4900;49.306;8.500;2023-11-21T06:37:48;4.40;;;3.07;;
9722;SDS011;4900;49.306;8.500;2023-11-21T06:40:13;4.57;;;3.00;;
9722;SDS011;4900;49.306;8.500;2023-11-21T06:42:46;5.27;;;2.70;;
9722;SDS011;4900;49.306;8.500;2023-11-21T06:45:12;4.93;;;2.83;;
9722;SDS011;4900;49.306;8.500;2023-11-21T06:47:38;4.00;;;3.50;;
9722;SDS011;4900;49.306;8.500;2023-11-21T06:50:04;4.23;;;3.37;;
9722;SDS011;4900;49.306;8.500;2023-11-21T06:52:31;3.93;;;3.30;;
9722;SDS011;4900;49.306;8.500;2023-11-21T06:54:57;4.00;;;3.00;;
9722;SDS011;4900;49.306;8.500;2023-11-21T06:57:23;3.63;;;2.97;;
9722;SDS011;4900;49.306;8.500;2023-11-21T06:59:48;4.60;;;3.20;;
9722;SDS011;4900;49.306;8.500;2023-11-21T07:02:15;3.20;;;2.63;;
9722;SDS011;4900;49.306;8.500;2023-11-21T07:04:43;5.20;;;3.50;;
9722;SDS011;4900;49.306;8.500;2023-11-21T07:07:12;5.27;;;3.90;;
9722;SDS011;4900;49.306;8.500;2023-11-21T07:09:37;5.90;;;4.47;;
9722;SDS011;4900;49.306;8.500;2023-11-21T07:12:03;6.57;;;4.60;;
9722;SDS011;4900;49.306;8.500;2023-11-21T07:14:31;5.60;;;4.23;;
9722;SDS011;4900;49.306;8.500;2023-11-21T07:16:57;7.00;;;5.57;;
9722;SDS011;4900;49.306;8.500;2023-11-21T07:19:22;7.10;;;5.40;;
9722;SDS011;4900;49.306;8.500;2023-11-21T07:21:48;9.83;;;7.30;;
9722;SDS011;4900;49.306;8.500;2023-11-21T07:24:16;9.00;;;7.40;;
9722;SDS011;4900;49.306;8.500;2023-11-21T07:26:41;10.37;;;7.57;;
9722;SDS011;4900;49.306;8.500;2023-11-21T07:29:07;10.13;;;7.17;;
9722;SDS011;4900;49.306;8.500;2023-11-21T07:31:32;11.47;;;9.00;;
9722;SDS011;4900;49.306;8.500;2023-11-21T07:33:59;9.53;;;7.23;;
9722;SDS011;4900;49.306;8.500;2023-11-21T07:36:25;11.23;;;8.90;;
9722;SDS011;4900;49.306;8.500;2023-11-21T07:38:50;14.43;;;10.43;;
9722;SDS011;4900;49.306;8.500;2023-11-21T07:41:17;14.67;;;11.70;;
9722;SDS011;4900;49.306;8.500;2023-11-21T07:43:43;21.17;;;15.57;;
9722;SDS011;4900;49.306;8.500;2023-11-21T07:46:09;15.20;;;11.37;;
9722;SDS011;4900;49.306;8.500;2023-11-21T07:48:34;19.47;;;15.50;;
9722;SDS011;4900;49.306;8.500;2023-11-21T07:51:04;21.33;;;16.20;;
9722;SDS011;4900;49.306;8.500;2023-11-21T07:53:30;18.50;;;12.33;;
9722;SDS011;4900;49.306;8.500;2023-11-21T07:55:56;14.23;;;11.30;;
9722;SDS011;4900;49.306;8.500;2023-11-21T07:58:22;18.90;;;12.47;;
9722;SDS011;4900;49.306;8.500;2023-11-21T08:00:47;15.20;;;11.50;;
9722;SDS011;4900;49.306;8.500;2023-11-21T08:03:13;15.80;;;12.37;;
9722;SDS011;4900;49.306;8.500;2023-11-21T08:05:39;15.20;;;11.57;;
9722;SDS011;4900;49.306;8.500;2023-11-21T08:08:05;16.37;;;11.90;;
9722;SDS011;4900;49.306;8.500;2023-11-21T08:10:30;14.60;;;11.23;;
9722;SDS011;4900;49.306;8.500;2023-11-21T08:12:56;14.27;;;9.83;;
9722;SDS011;4900;49.306;8.500;2023-11-21T08:15:21;15.73;;;10.53;;
9722;SDS011;4900;49.306;8.500;2023-11-21T08:17:47;13.13;;;9.97;;
9722;SDS011;4900;49.306;8.500;2023-11-21T08:20:14;12.70;;;9.07;;
9722;SDS011;4900;49.306;8.500;2023-11-21T08:22:43;13.93;;;9.93;;
9722;SDS011;4900;49.306;8.500;2023-11-21T08:25:09;13.30;;;10.03;;
9722;SDS011;4900;49.306;8.500;2023-11-21T08:27:34;12.87;;;8.80;;
9722;SDS011;4900;49.306;8.500;2023-11-21T08:30:03;13.60;;;9.50;;
9722;SDS011;4900;49.306;8.500;2023-11-21T08:32:29;15.23;;;10.57;;
9722;SDS011;4900;49.306;8.500;2023-11-21T08:34:58;13.87;;;10.83;;
9722;SDS011;4900;49.306;8.500;2023-11-21T08:37:24;15.53;;;11.03;;
9722;SDS011;4900;49.306;8.500;2023-11-21T08:39:52;14.30;;;9.87;;
9722;SDS011;4900;49.306;8.500;2023-11-21T08:42:18;10.80;;;8.20;;
9722;SDS011;4900;49.306;8.500;2023-11-21T08:44:43;10.50;;;8.03;;
9722;SDS011;4900;49.306;8.500;2023-11-21T08:47:09;10.77;;;8.27;;
9722;SDS011;4900;49.306;8.500;2023-11-21T08:49:34;11.80;;;8.03;;
9722;SDS011;4900;49.306;8.500;2023-11-21T08:52:00;10.13;;;7.20;;
9722;SDS011;4900;49.306;8.500;2023-11-21T08:54:26;10.63;;;8.20;;
9722;SDS011;4900;49.306;8.500;2023-11-21T08:56:52;11.27;;;8.40;;
9722;SDS011;4900;49.306;8.500;2023-11-21T08:59:19;11.27;;;8.23;;
9722;SDS011;4900;49.306;8.500;2023-11-21T09:01:45;9.30;;;7.20;;
9722;SDS011;4900;49.306;8.500;2023-11-21T09:04:11;9.37;;;7.33;;
9722;SDS011;4900;49.306;8.500;2023-11-21T09:06:37;9.27;;;7.33;;
9722;SDS011;4900;49.306;8.500;2023-11-21T09:09:03;13.37;;;9.97;;
9722;SDS011;4900;49.306;8.500;2023-11-21T09:11:30;13.03;;;10.07;;
9722;SDS011;4900;49.306;8.500;2023-11-21T09:13:58;13.53;;;10.83;;
9722;SDS011;4900;49.306;8.500;2023-11-21T09:16:24;11.77;;;9.77;;
9722;SDS011;4900;49.306;8.500;2023-11-21T09:18:50;11.80;;;8.40;;
9722;SDS011;4900;49.306;8.500;2023-11-21T09:21:15;10.57;;;9.00;;
9722;SDS011;4900;49.306;8.500;2023-11-21T09:23:40;10.00;;;7.63;;
9722;SDS011;4900;49.306;8.500;2023-11-21T09:26:07;10.83;;;8.23;;
9722;SDS011;4900;49.306;8.500;2023-11-21T09:28:33;8.80;;;6.93;;
9722;SDS011;4900;49.306;8.500;2023-11-21T09:30:59;9.77;;;7.20;;
9722;SDS011;4900;49.306;8.500;2023-11-21T09:33:24;7.13;;;6.37;;
9722;SDS011;4900;49.306;8.500;2023-11-21T09:35:50;7.23;;;6.33;;
9722;SDS011;4900;49.306;8.500;2023-11-21T09:38:16;5.82;;;5.20;;
9722;SDS011;4900;49.306;8.500;2023-11-21T09:40:41;5.37;;;4.27;;
9722;SDS011;4900;49.306;8.500;2023-11-21T09:43:14;5.10;;;4.33;;
9722;SDS011;4900;49.306;8.500;2023-11-21T09:45:44;4.10;;;3.70;;
9722;SDS011;4900;49.306;8.500;2023-11-21T09:48:18;4.10;;;3.55;;
9722;SDS011;4900;49.306;8.500;2023-11-21T09:50:45;3.90;;;3.50;;
9722;SDS011;4900;49.306;8.500;2023-11-21T09:55:50;3.70;;;3.30;;
9722;SDS011;4900;49.306;8.500;2023-11-21T09:58:17;3.58;;;2.83;;
9722;SDS011;4900;49.306;8.500;2023-11-21T10:00:48;2.90;;;2.50;;
9722;SDS011;4900;49.306;8.500;2023-11-21T10:03:14;2.30;;;2.10;;
9722;SDS011;4900;49.306;8.500;2023-11-21T10:05:42;2.53;;;2.33;;
9722;SDS011;4900;49.306;8.500;2023-11-21T10:08:08;3.43;;;2.47;;
9722;SDS011;4900;49.306;8.500;2023-11-21T10:10:35;2.10;;;1.90;;
9722;SDS011;4900;49.306;8.500;2023-11-21T10:13:03;2.10;;;1.90;;
9722;SDS011;4900;49.306;8.500;2023-11-21T10:15:35;2.92;;;1.80;;
9722;SDS011;4900;49.306;8.500;2023-11-21T10:18:04;2.33;;;1.88;;
9722;SDS011;4900;49.306;8.500;2023-11-21T10:20:32;2.20;;;2.00;;
9722;SDS011;4900;49.306;8.500;2023-11-21T10:23:03;2.17;;;1.98;;
9722;SDS011;4900;49.306;8.500;2023-11-21T10:25:29;2.40;;;2.13;;
9722;SDS011;4900;49.306;8.500;2023-11-21T10:27:59;5.63;;;2.65;;
9722;SDS011;4900;49.306;8.500;2023-11-21T10:33:02;5.53;;;3.05;;
9722;SDS011;4900;49.306;8.500;2023-11-21T10:35:44;3.22;;;2.83;;
9722;SDS011;4900;49.306;8.500;2023-11-21T10:38:18;3.92;;;3.53;;
9722;SDS011;4900;49.306;8.500;2023-11-21T10:40:46;3.65;;;3.28;;
9722;SDS011;4900;49.306;8.500;2023-11-21T10:43:13;3.88;;;3.47;;
9722;SDS011;4900;49.306;8.500;2023-11-21T10:45:40;4.95;;;3.70;;
9722;SDS011;4900;49.306;8.500;2023-11-21T10:48:06;3.63;;;3.22;;
9722;SDS011;4900;49.306;8.500;2023-11-21T10:50:42;4.55;;;3.65;;
9722;SDS011;4900;49.306;8.500;2023-11-21T10:53:09;4.53;;;4.00;;
9722;SDS011;4900;49.306;8.500;2023-11-21T10:55:34;5.07;;;4.10;;
9722;SDS011;4900;49.306;8.500;2023-11-21T10:58:03;5.32;;;4.22;;
9722;SDS011;4900;49.306;8.500;2023-11-21T11:00:32;4.55;;;3.95;;
9722;SDS011;4900;49.306;8.500;2023-11-21T11:02:58;6.07;;;4.57;;
9722;SDS011;4900;49.306;8.500;2023-11-21T11:05:26;6.32;;;5.40;;
9722;SDS011;4900;49.306;8.500;2023-11-21T11:08:04;5.65;;;5.00;;
9722;SDS011;4900;49.306;8.500;2023-11-21T11:10:31;7.70;;;5.82;;
9722;SDS011;4900;49.306;8.500;2023-11-21T11:12:57;7.35;;;5.70;;
9722;SDS011;4900;49.306;8.500;2023-11-21T11:15:24;8.73;;;6.57;;
9722;SDS011;4900;49.306;8.500;2023-11-21T11:17:50;11.00;;;7.03;;
9722;SDS011;4900;49.306;8.500;2023-11-21T11:20:17;9.38;;;6.85;;
9722;SDS011;4900;49.306;8.500;2023-11-21T11:28:52;9.32;;;6.40;;
9722;SDS011;4900;49.306;8.500;2023-11-21T11:34:32;10.40;;;7.95;;
9722;SDS011;4900;49.306;8.500;2023-11-21T11:39:37;9.43;;;6.40;;
9722;SDS011;4900;49.306;8.500;2023-11-21T11:42:07;6.70;;;5.75;;
9722;SDS011;4900;49.306;8.500;2023-11-21T11:55:15;6.32;;;4.90;;
9722;SDS011;4900;49.306;8.500;2023-11-21T11:57:49;6.40;;;4.35;;
9722;SDS011;4900;49.306;8.500;2023-11-21T12:02:54;5.32;;;4.32;;
9722;SDS011;4900;49.306;8.500;2023-11-21T12:05:24;5.13;;;4.40;;
9722;SDS011;4900;49.306;8.500;2023-11-21T12:07:56;5.22;;;4.00;;
9722;SDS011;4900;49.306;8.500;2023-11-21T12:10:24;4.70;;;4.20;;
9722;SDS011;4900;49.306;8.500;2023-11-21T12:12:54;3.75;;;3.30;;
9722;SDS011;4900;49.306;8.500;2023-11-21T12:15:22;5.47;;;4.15;;
9722;SDS011;4900;49.306;8.500;2023-11-21T12:17:48;4.40;;;3.80;;
9722;SDS011;4900;49.306;8.500;2023-11-21T12:20:15;3.95;;;3.55;;
9722;SDS011;4900;49.306;8.500;2023-11-21T12:22:50;4.65;;;3.63;;
9722;SDS011;4900;49.306;8.500;2023-11-21T12:25:20;5.40;;;3.88;;
9722;SDS011;4900;49.306;8.500;2023-11-21T12:27:48;5.13;;;3.40;;
9722;SDS011;4900;49.306;8.500;2023-11-21T12:30:15;4.13;;;3.50;;
9722;SDS011;4900;49.306;8.500;2023-11-21T12:32:47;4.95;;;3.60;;
9722;SDS011;4900;49.306;8.500;2023-11-21T12:35:14;5.60;;;4.13;;
9722;SDS011;4900;49.306;8.500;2023-11-21T12:37:41;5.28;;;4.15;;
9722;SDS011;4900;49.306;8.500;2023-11-21T12:40:09;4.28;;;3.45;;
9722;SDS011;4900;49.306;8.500;2023-11-21T12:43:01;5.22;;;3.75;;
9722;SDS011;4900;49.306;8.500;2023-11-21T12:45:29;5.45;;;4.40;;
9722;SDS011;4900;49.306;8.500;2023-11-21T12:47:59;4.40;;;3.95;;
9722;SDS011;4900;49.306;8.500;2023-11-21T12:50:32;5.57;;;3.72;;
9722;SDS011;4900;49.306;8.500;2023-11-21T12:53:09;5.78;;;4.07;;
9722;SDS011;4900;49.306;8.500;2023-11-21T12:55:38;4.78;;;4.13;;
9722;SDS011;4900;49.306;8.500;2023-11-21T12:58:08;5.25;;;4.57;;
9722;SDS011;4900;49.306;8.500;2023-11-21T13:00:36;5.50;;;4.05;;
9722;SDS011;4900;49.306;8.500;2023-11-21T13:03:03;4.35;;;3.92;;
9722;SDS011;4900;49.306;8.500;2023-11-21T13:05:32;4.47;;;4.00;;
9722;SDS011;4900;49.306;8.500;2023-11-21T13:08:03;4.85;;;3.85;;
9722;SDS011;4900;49.306;8.500;2023-11-21T13:10:33;6.75;;;4.57;;
9722;SDS011;4900;49.306;8.500;2023-11-21T13:13:01;4.80;;;4.30;;
9722;SDS011;4900;49.306;8.500;2023-11-21T13:15:30;6.85;;;4.00;;
9722;SDS011;4900;49.306;8.500;2023-11-21T13:17:57;4.95;;;3.78;;
9722;SDS011;4900;49.306;8.500;2023-11-21T13:20:23;4.35;;;3.90;;
9722;SDS011;4900;49.306;8.500;2023-11-21T13:22:56;5.13;;;3.78;;
9722;SDS011;4900;49.306;8.500;2023-11-21T13:25:24;5.22;;;4.10;;
9722;SDS011;4900;49.306;8.500;2023-11-21T13:27:55;4.60;;;3.45;;
9722;SDS011;4900;49.306;8.500;2023-11-21T13:30:22;5.55;;;4.00;;
9722;SDS011;4900;49.306;8.500;2023-11-21T13:32:51;5.40;;;4.05;;
9722;SDS011;4900;49.306;8.500;2023-11-21T13:35:18;5.40;;;3.55;;
9722;SDS011;4900;49.306;8.500;2023-11-21T13:37:51;3.75;;;3.08;;
9722;SDS011;4900;49.306;8.500;2023-11-21T13:40:21;3.63;;;3.17;;
9722;SDS011;4900;49.306;8.500;2023-11-21T13:42:52;6.20;;;3.30;;
9722;SDS011;4900;49.306;8.500;2023-11-21T13:45:20;4.28;;;3.05;;
9722;SDS011;4900;49.306;8.500;2023-11-21T13:47:52;3.90;;;3.17;;
9722;SDS011;4900;49.306;8.500;2023-11-21T13:50:23;3.67;;;2.92;;
9722;SDS011;4900;49.306;8.500;2023-11-21T13:52:55;4.80;;;3.08;;
9722;SDS011;4900;49.306;8.500;2023-11-21T13:55:21;5.40;;;3.50;;
9722;SDS011;4900;49.306;8.500;2023-11-21T13:57:50;4.47;;;3.60;;
9722;SDS011;4900;49.306;8.500;2023-11-21T14:00:17;6.80;;;3.55;;
9722;SDS011;4900;49.306;8.500;2023-11-21T14:03:02;3.70;;;3.20;;
9722;SDS011;4900;49.306;8.500;2023-11-21T14:05:31;3.47;;;3.17;;
9722;SDS011;4900;49.306;8.500;2023-11-21T14:07:59;5.53;;;2.80;;
9722;SDS011;4900;49.306;8.500;2023-11-21T14:10:31;3.75;;;2.55;;
9722;SDS011;4900;49.306;8.500;2023-11-21T14:13:07;3.38;;;2.78;;
9722;SDS011;4900;49.306;8.500;2023-11-21T14:15:35;3.22;;;2.78;;
9722;SDS011;4900;49.306;8.500;2023-11-21T14:18:06;3.63;;;2.50;;
9722;SDS011;4900;49.306;8.500;2023-11-21T14:20:33;4.32;;;2.95;;
9722;SDS011;4900;49.306;8.500;2023-11-21T14:23:01;3.55;;;2.83;;
9722;SDS011;4900;49.306;8.500;2023-11-21T14:25:26;5.00;;;2.70;;
9722;SDS011;4900;49.306;8.500;2023-11-21T14:27:52;6.75;;;2.88;;
9722;SDS011;4900;49.306;8.500;2023-11-21T14:30:17;2.80;;;2.60;;
9722;SDS011;4900;49.306;8.500;2023-11-21T14:32:44;5.03;;;3.00;;
9722;SDS011;4900;49.306;8.500;2023-11-21T14:35:10;4.97;;;3.22;;
9722;SDS011;4900;49.306;8.500;2023-11-21T14:37:35;4.53;;;2.90;;
9722;SDS011;4900;49.306;8.500;2023-11-21T14:40:01;4.28;;;3.13;;
9722;SDS011;4900;49.306;8.500;2023-11-21T14:42:26;4.53;;;3.08;;
9722;SDS011;4900;49.306;8.500;2023-11-21T14:44:54;5.43;;;3.53;;
9722;SDS011;4900;49.306;8.500;2023-11-21T14:47:25;4.05;;;2.92;;
9722;SDS011;4900;49.306;8.500;2023-11-21T14:49:52;4.93;;;2.90;;
9722;SDS011;4900;49.306;8.500;2023-11-21T14:52:21;5.32;;;3.10;;
9722;SDS011;4900;49.306;8.500;2023-11-21T14:54:59;6.18;;;3.38;;
9722;SDS011;4900;49.306;8.500;2023-11-21T14:57:58;5.32;;;3.28;;
9722;SDS011;4900;49.306;8.500;2023-11-21T15:00:27;4.78;;;3.00;;
9722;SDS011;4900;49.306;8.500;2023-11-21T15:03:00;5.15;;;3.13;;
9722;SDS011;4900;49.306;8.500;2023-11-21T15:05:26;4.07;;;2.70;;
9722;SDS011;4900;49.306;8.500;2023-11-21T15:07:55;6.22;;;3.17;;
9722;SDS011;4900;49.306;8.500;2023-11-21T15:10:33;5.28;;;3.20;;
9722;SDS011;4900;49.306;8.500;2023-11-21T15:13:10;5.13;;;3.10;;
9722;SDS011;4900;49.306;8.500;2023-11-21T15:15:36;5.82;;;2.97;;
9722;SDS011;4900;49.306;8.500;2023-11-21T15:18:03;6.00;;;3.20;;
9722;SDS011;4900;49.306;8.500;2023-11-21T15:20:28;4.32;;;2.92;;
9722;SDS011;4900;49.306;8.500;2023-11-21T15:22:55;6.33;;;3.30;;
9722;SDS011;4900;49.306;8.500;2023-11-21T15:25:21;4.47;;;3.17;;
9722;SDS011;4900;49.306;8.500;2023-11-21T15:27:46;7.30;;;3.20;;
9722;SDS011;4900;49.306;8.500;2023-11-21T15:30:15;5.25;;;3.33;;
9722;SDS011;4900;49.306;8.500;2023-11-21T15:32:44;4.93;;;3.35;;
9722;SDS011;4900;49.306;8.500;2023-11-21T15:35:09;4.85;;;3.95;;
9722;SDS011;4900;49.306;8.500;2023-11-21T15:37:38;6.97;;;3.70;;
9722;SDS011;4900;49.306;8.500;2023-11-21T15:40:04;6.40;;;3.50;;
9722;SDS011;4900;49.306;8.500;2023-11-21T15:42:31;7.50;;;3.90;;